createdAt,value
2018-08-31T00:00:08.303Z,11.33
2018-08-31T00:02:47.932Z,11.33
2018-08-31T00:05:57.126Z,11.40
2018-08-31T00:08:46.697Z,11.41
2018-08-31T00:13:38.258Z,11.40
2018-08-31T00:16:06.499Z,11.38
2018-08-31T00:18:34.589Z,11.35
2018-08-31T00:21:02.684Z,11.20
2018-08-31T00:23:41.653Z,11.20
2018-08-31T00:28:25.681Z,11.17
2018-08-31T00:31:05.532Z,11.14
2018-08-31T00:34:09.572Z,11.19
2018-08-31T00:36:48.493Z,11.06
2018-08-31T00:39:34.492Z,11.02
2018-08-31T00:42:43.153Z,11.00
2018-08-31T00:45:26.234Z,10.93
2018-08-31T00:47:54.305Z,10.88
2018-08-31T00:50:22.407Z,10.78
2018-08-31T00:52:50.407Z,10.71
2018-08-31T00:55:18.557Z,10.74
2018-08-31T00:57:46.644Z,10.62
2018-08-31T01:00:14.644Z,10.69
2018-08-31T01:02:42.805Z,10.72
2018-08-31T01:05:10.957Z,10.66
2018-08-31T01:07:39.183Z,10.63
2018-08-31T01:10:07.267Z,10.67
2018-08-31T01:12:35.376Z,10.63
2018-08-31T01:15:03.465Z,10.57
2018-08-31T01:17:31.530Z,10.54
2018-08-31T01:19:59.553Z,10.34
2018-08-31T01:22:27.660Z,10.23
2018-08-31T01:24:55.672Z,10.18
2018-08-31T01:27:23.700Z,10.19
2018-08-31T01:29:51.727Z,10.25
2018-08-31T01:32:19.907Z,10.39
2018-08-31T01:34:47.908Z,10.33
2018-08-31T01:37:16.007Z,10.35
2018-08-31T01:39:43.981Z,10.38
2018-08-31T01:42:12.185Z,10.19
2018-08-31T01:44:40.507Z,10.04
2018-08-31T01:47:08.947Z,10.10
2018-08-31T01:49:37.233Z,10.16
2018-08-31T01:52:05.577Z,10.17
2018-08-31T01:54:33.774Z,10.17
2018-08-31T01:57:01.897Z,9.93
2018-08-31T01:59:29.997Z,9.93
2018-08-31T02:01:58.280Z,10.05
2018-08-31T02:04:26.525Z,10.03
2018-08-31T02:06:54.926Z,10.11
2018-08-31T02:09:23.181Z,10.10
2018-08-31T02:11:52.389Z,10.13
2018-08-31T02:14:20.656Z,10.10
2018-08-31T02:16:48.677Z,10.02
2018-08-31T02:19:16.700Z,10.06
2018-08-31T02:21:45.056Z,10.05
2018-08-31T02:24:13.415Z,9.80
2018-08-31T02:26:41.621Z,9.85
2018-08-31T02:29:09.998Z,9.89
2018-08-31T02:31:38.387Z,9.89
2018-08-31T02:34:06.802Z,9.93
2018-08-31T02:36:35.103Z,9.94
2018-08-31T02:39:03.701Z,9.85
2018-08-31T02:41:31.942Z,9.81
2018-08-31T02:44:00.400Z,9.83
2018-08-31T02:46:28.547Z,9.89
2018-08-31T02:48:57.063Z,9.89
2018-08-31T02:51:25.235Z,9.85
2018-08-31T02:53:53.494Z,9.72
2018-08-31T02:56:21.699Z,9.63
2018-08-31T02:58:50.012Z,9.53
2018-08-31T03:01:18.275Z,9.52
2018-08-31T03:03:46.804Z,9.64
2018-08-31T03:06:15.121Z,9.53
2018-08-31T03:08:43.595Z,9.43
2018-08-31T03:11:11.935Z,9.39
2018-08-31T03:13:40.098Z,9.56
2018-08-31T03:16:08.303Z,9.53
2018-08-31T03:18:36.547Z,9.57
2018-08-31T03:21:04.811Z,9.58
2018-08-31T03:23:33.113Z,9.46
2018-08-31T03:26:01.388Z,9.38
2018-08-31T03:28:29.850Z,9.41
2018-08-31T03:30:58.078Z,9.33
2018-08-31T03:33:27.251Z,9.32
2018-08-31T03:35:55.571Z,9.37
2018-08-31T03:38:23.815Z,9.42
2018-08-31T03:40:52.042Z,9.41
2018-08-31T03:43:20.240Z,9.47
2018-08-31T03:45:48.465Z,9.46
2018-08-31T03:48:16.802Z,9.54
2018-08-31T03:50:45.104Z,9.35
2018-08-31T03:53:13.461Z,9.25
2018-08-31T03:55:41.711Z,9.29
2018-08-31T03:58:09.886Z,9.15
2018-08-31T04:00:38.391Z,9.21
2018-08-31T04:03:06.840Z,9.11
2018-08-31T04:05:35.121Z,9.30
2018-08-31T04:08:03.326Z,9.41
2018-08-31T04:10:31.742Z,9.50
2018-08-31T04:13:00.031Z,9.54
2018-08-31T04:15:28.491Z,9.59
2018-08-31T04:17:56.688Z,9.65
2018-08-31T04:20:25.009Z,9.64
2018-08-31T04:22:53.189Z,9.52
2018-08-31T04:25:21.411Z,9.33
2018-08-31T04:27:49.554Z,9.21
2018-08-31T04:30:17.832Z,9.33
2018-08-31T04:32:46.052Z,9.31
2018-08-31T04:35:14.385Z,9.32
2018-08-31T04:37:42.732Z,9.21
2018-08-31T04:40:11.310Z,9.30
2018-08-31T04:42:39.500Z,9.50
2018-08-31T04:45:08.000Z,9.56
2018-08-31T04:47:36.254Z,9.49
2018-08-31T04:50:04.555Z,9.63
2018-08-31T04:52:32.834Z,9.68
2018-08-31T04:55:01.229Z,9.84
2018-08-31T04:57:29.425Z,10.04
2018-08-31T04:59:57.619Z,10.11
2018-08-31T05:02:25.881Z,10.17
2018-08-31T05:04:54.086Z,10.07
2018-08-31T05:07:22.527Z,10.05
2018-08-31T05:09:50.626Z,10.21
2018-08-31T05:12:19.025Z,10.49
2018-08-31T05:14:47.204Z,10.77
2018-08-31T05:17:15.568Z,10.58
2018-08-31T05:19:43.701Z,10.65
2018-08-31T05:22:11.987Z,10.42
2018-08-31T05:24:40.257Z,10.67
2018-08-31T05:27:08.672Z,10.65
2018-08-31T05:29:37.057Z,10.88
2018-08-31T05:32:05.334Z,11.18
2018-08-31T05:34:33.545Z,11.27
2018-08-31T05:37:01.960Z,11.46
2018-08-31T05:39:30.148Z,11.92
2018-08-31T05:41:58.450Z,12.02
2018-08-31T05:44:27.135Z,12.24
2018-08-31T05:46:55.435Z,12.47
2018-08-31T05:49:23.662Z,12.86
2018-08-31T05:51:51.909Z,13.17
2018-08-31T05:54:20.130Z,13.70
2018-08-31T05:56:48.429Z,14.05
2018-08-31T05:59:16.685Z,14.38
2018-08-31T06:01:44.963Z,14.55
2018-08-31T06:04:13.137Z,14.71
2018-08-31T06:06:41.359Z,14.55
2018-08-31T06:09:10.783Z,14.68
2018-08-31T06:11:39.257Z,14.78
2018-08-31T06:14:07.481Z,15.02
2018-08-31T06:16:35.777Z,15.51
2018-08-31T06:19:04.010Z,15.41
2018-08-31T06:21:32.329Z,15.70
2018-08-31T06:24:00.599Z,15.66
2018-08-31T06:26:28.818Z,15.57
2018-08-31T06:28:57.964Z,15.57
2018-08-31T06:31:26.324Z,15.39
2018-08-31T06:33:54.619Z,15.10
2018-08-31T06:36:22.901Z,15.31
2018-08-31T06:38:51.102Z,15.23
2018-08-31T06:41:19.482Z,14.74
2018-08-31T06:43:47.652Z,14.85
2018-08-31T06:46:16.048Z,14.90
2018-08-31T06:48:44.236Z,15.35
2018-08-31T06:51:12.574Z,15.67
2018-08-31T06:53:40.947Z,16.06
2018-08-31T06:56:09.201Z,16.26
2018-08-31T06:58:37.535Z,16.29
2018-08-31T07:01:05.994Z,16.47
2018-08-31T07:03:34.402Z,16.20
2018-08-31T07:06:02.715Z,15.89
2018-08-31T07:08:30.964Z,15.74
2018-08-31T07:10:59.226Z,15.81
2018-08-31T07:13:27.456Z,16.20
2018-08-31T07:15:55.594Z,16.44
2018-08-31T07:18:23.954Z,16.68
2018-08-31T07:20:52.174Z,16.36
2018-08-31T07:23:20.497Z,16.70
2018-08-31T07:25:48.830Z,16.55
2018-08-31T07:28:17.149Z,16.73
2018-08-31T07:30:45.712Z,16.78
2018-08-31T07:33:14.411Z,16.83
2018-08-31T07:35:42.689Z,17.05
2018-08-31T07:38:10.985Z,17.52
2018-08-31T07:40:39.169Z,17.53
2018-08-31T07:43:07.951Z,17.71
2018-08-31T07:45:36.170Z,17.66
2018-08-31T07:48:04.476Z,17.51
2018-08-31T07:50:32.847Z,17.69
2018-08-31T07:53:01.208Z,17.45
2018-08-31T07:55:29.516Z,17.39
2018-08-31T07:57:58.076Z,17.57
2018-08-31T08:00:26.288Z,17.73
2018-08-31T08:02:55.104Z,18.34
2018-08-31T08:05:23.360Z,18.73
2018-08-31T08:07:51.637Z,18.70
2018-08-31T08:10:19.861Z,19.23
2018-08-31T08:12:48.070Z,19.87
2018-08-31T08:15:16.379Z,20.14
2018-08-31T08:17:44.727Z,20.65
2018-08-31T08:20:13.039Z,20.15
2018-08-31T08:22:41.407Z,19.88
2018-08-31T08:25:09.728Z,19.80
2018-08-31T08:27:38.007Z,19.05
2018-08-31T08:30:06.327Z,18.80
2018-08-31T08:32:34.635Z,18.88
2018-08-31T08:35:02.839Z,19.22
2018-08-31T08:37:31.232Z,20.06
2018-08-31T08:39:59.532Z,20.21
2018-08-31T08:42:27.932Z,20.65
2018-08-31T08:44:56.274Z,20.14
2018-08-31T08:47:24.494Z,20.14
2018-08-31T08:49:52.809Z,20.42
2018-08-31T08:52:21.033Z,20.36
2018-08-31T08:54:49.314Z,20.54
2018-08-31T08:57:17.633Z,20.22
2018-08-31T08:59:45.953Z,20.33
2018-08-31T09:02:14.173Z,20.49
2018-08-31T09:04:42.473Z,20.43
2018-08-31T09:07:13.360Z,20.89
2018-08-31T09:09:41.713Z,21.05
2018-08-31T09:12:10.607Z,20.89
2018-08-31T09:14:38.913Z,20.68
2018-08-31T09:17:07.194Z,20.21
2018-08-31T09:19:35.498Z,20.76
2018-08-31T09:22:04.436Z,21.13
2018-08-31T09:24:32.891Z,21.25
2018-08-31T09:27:01.173Z,21.17
2018-08-31T09:29:29.572Z,21.40
2018-08-31T09:32:00.153Z,21.39
2018-08-31T09:34:31.837Z,21.75
2018-08-31T09:37:00.973Z,21.55
2018-08-31T09:39:29.453Z,21.20
2018-08-31T09:41:58.173Z,21.08
2018-08-31T09:44:26.964Z,21.73
2018-08-31T09:46:57.209Z,21.05
2018-08-31T09:49:25.692Z,20.57
2018-08-31T09:51:57.332Z,20.33
2018-08-31T09:54:26.332Z,20.46
2018-08-31T09:56:54.792Z,20.46
2018-08-31T09:59:23.572Z,20.58
2018-08-31T10:01:51.992Z,20.83
2018-08-31T10:26:41.131Z,21.13
2018-08-31T10:29:14.039Z,21.11
2018-08-31T10:31:42.519Z,20.94
2018-08-31T10:34:12.218Z,20.41
2018-08-31T10:36:40.659Z,20.40
2018-08-31T10:39:13.459Z,20.53
2018-08-31T10:41:41.978Z,21.10
2018-08-31T10:44:10.979Z,20.75
2018-08-31T10:46:40.919Z,21.03
2018-08-31T10:49:09.358Z,20.73
2018-08-31T10:51:37.998Z,20.70
2018-08-31T10:54:06.521Z,20.43
2018-08-31T10:59:47.979Z,20.82
2018-08-31T11:02:16.179Z,20.78
2018-08-31T11:04:44.398Z,20.57
2018-08-31T11:07:12.699Z,20.65
2018-08-31T11:09:40.919Z,20.85
2018-08-31T11:12:09.120Z,21.00
2018-08-31T11:14:37.310Z,21.48
2018-08-31T11:17:05.624Z,21.80
2018-08-31T11:19:34.019Z,21.12
2018-08-31T11:22:02.359Z,20.84
2018-08-31T11:24:30.799Z,21.00
2018-08-31T11:26:59.079Z,20.97
2018-08-31T11:29:27.339Z,21.26
2018-08-31T11:31:55.791Z,21.11
2018-08-31T11:34:24.180Z,20.84
2018-08-31T11:36:52.359Z,20.74
2018-08-31T11:39:20.672Z,20.81
2018-08-31T11:41:49.239Z,21.08
2018-08-31T11:44:17.519Z,21.26
2018-08-31T11:46:45.811Z,20.94
2018-08-31T11:49:13.999Z,20.91
2018-08-31T11:51:42.330Z,20.72
2018-08-31T11:54:10.519Z,20.64
2018-08-31T11:56:38.871Z,20.52
2018-08-31T11:59:07.019Z,19.84
2018-08-31T12:01:35.280Z,19.63
2018-08-31T12:04:03.519Z,19.61
2018-08-31T12:06:31.951Z,19.50
2018-08-31T12:09:00.239Z,19.57
2018-08-31T12:11:28.499Z,19.76
2018-08-31T12:13:56.659Z,19.76
2018-08-31T12:16:24.991Z,20.13
2018-08-31T12:21:45.560Z,19.62
2018-08-31T12:24:17.148Z,19.44
2018-08-31T12:30:03.831Z,19.61
2018-08-31T12:32:32.740Z,19.62
2018-08-31T12:35:01.416Z,19.39
2018-08-31T12:37:29.914Z,19.39
2018-08-31T12:39:58.817Z,19.41
2018-08-31T12:42:27.402Z,19.29
2018-08-31T12:44:55.984Z,19.26
2018-08-31T12:47:24.644Z,19.23
2018-08-31T12:50:07.121Z,19.55
2018-08-31T12:52:36.203Z,19.91
2018-08-31T12:55:05.076Z,20.39
2018-08-31T12:57:34.653Z,20.18
2018-08-31T13:00:03.424Z,20.39
2018-08-31T13:02:34.662Z,19.99
2018-08-31T13:05:04.539Z,19.87
2018-08-31T13:07:33.802Z,19.90
2018-08-31T13:10:03.118Z,20.27
2018-08-31T13:12:32.005Z,20.38
2018-08-31T13:15:00.708Z,20.47
2018-08-31T13:17:32.030Z,20.38
2018-08-31T13:20:37.762Z,20.70
2018-08-31T13:23:32.670Z,20.81
2018-08-31T13:26:02.042Z,20.89
2018-08-31T13:28:33.984Z,20.51
2018-08-31T13:31:07.157Z,20.51
2018-08-31T13:33:38.109Z,20.53
2018-08-31T13:36:09.680Z,20.45
2018-08-31T13:38:41.871Z,20.50
2018-08-31T13:41:18.484Z,20.25
2018-08-31T13:43:49.779Z,20.57
2018-08-31T13:46:21.805Z,20.40
2018-08-31T13:49:05.061Z,20.36
2018-08-31T13:51:41.869Z,20.45
2018-08-31T13:54:13.368Z,20.63
2018-08-31T13:57:08.745Z,20.31
2018-08-31T13:59:50.363Z,20.46
2018-08-31T14:02:22.786Z,20.31
2018-08-31T14:04:54.152Z,20.40
2018-08-31T14:07:33.662Z,20.46
2018-08-31T14:10:12.367Z,20.38
2018-08-31T14:12:54.614Z,20.14
2018-08-31T14:15:42.803Z,20.34
2018-08-31T14:18:21.386Z,20.14
2018-08-31T14:23:37.153Z,20.02
2018-08-31T14:26:08.869Z,20.16
2018-08-31T14:28:48.299Z,20.34
2018-08-31T14:31:19.829Z,20.01
2018-08-31T14:33:52.729Z,20.13
2018-08-31T14:36:23.326Z,20.03
2018-08-31T14:38:52.701Z,20.35
2018-08-31T14:41:27.696Z,20.61
2018-08-31T14:43:56.719Z,20.58
2018-08-31T14:46:27.438Z,20.55
2018-08-31T14:48:58.132Z,20.50
2018-08-31T14:51:29.142Z,20.38
2018-08-31T14:54:08.634Z,20.29
2018-08-31T14:56:41.435Z,20.13
2018-08-31T14:59:33.932Z,20.35
2018-08-31T15:02:06.349Z,20.26
2018-08-31T15:04:50.026Z,20.56
2018-08-31T15:07:38.711Z,20.51
2018-08-31T15:25:26.099Z,19.56
2018-08-31T15:27:54.567Z,19.28
2018-08-31T15:30:22.807Z,19.27
2018-08-31T15:32:51.127Z,19.29
2018-08-31T15:35:19.427Z,19.33
2018-08-31T15:37:48.547Z,19.09
2018-08-31T15:43:59.289Z,19.35
2018-08-31T15:48:37.974Z,19.44
2018-08-31T15:51:06.223Z,19.47
2018-08-31T15:53:34.623Z,19.27
2018-08-31T15:56:03.067Z,19.05
2018-08-31T15:58:31.463Z,18.73
2018-08-31T16:00:59.764Z,18.68
2018-08-31T16:03:28.064Z,18.66
2018-08-31T16:05:56.324Z,18.76
2018-08-31T16:08:24.663Z,18.73
2018-08-31T16:10:52.975Z,18.58
2018-08-31T16:13:21.293Z,18.53
2018-08-31T16:15:49.631Z,18.48
2018-08-31T16:18:17.920Z,18.41
2018-08-31T16:20:46.293Z,18.43
2018-08-31T16:23:14.952Z,18.50
2018-08-31T16:25:43.196Z,18.52
2018-08-31T16:28:11.499Z,18.57
2018-08-31T16:30:40.127Z,18.51
2018-08-31T16:33:08.432Z,18.58
2018-08-31T16:35:36.775Z,18.48
2018-08-31T16:38:05.115Z,18.67
2018-08-31T16:40:33.221Z,18.56
2018-08-31T16:43:01.476Z,18.64
2018-08-31T16:45:29.907Z,18.56
2018-08-31T16:47:58.156Z,18.56
2018-08-31T16:50:26.567Z,18.35
2018-08-31T16:52:54.769Z,18.37
2018-08-31T16:55:23.066Z,18.33
2018-08-31T16:57:51.515Z,18.19
2018-08-31T17:00:19.622Z,18.34
2018-08-31T17:02:47.973Z,18.22
2018-08-31T17:05:16.329Z,18.04
2018-08-31T17:07:44.630Z,18.05
2018-08-31T17:10:13.113Z,17.99
2018-08-31T17:12:41.493Z,18.15
2018-08-31T17:15:09.833Z,18.15
2018-08-31T17:17:38.079Z,18.01
2018-08-31T17:20:07.180Z,18.05
2018-08-31T17:22:35.512Z,18.07
2018-08-31T17:25:05.540Z,17.95
2018-08-31T17:27:39.159Z,17.87
2018-08-31T17:30:13.730Z,17.75
2018-08-31T17:47:49.685Z,17.37
2018-08-31T17:50:17.983Z,17.31
2018-08-31T17:52:46.301Z,17.25
2018-08-31T17:55:15.170Z,17.24
2018-08-31T17:57:43.591Z,17.12
2018-08-31T18:00:12.285Z,17.13
2018-08-31T18:02:40.904Z,17.02
2018-08-31T18:05:09.139Z,17.02
2018-08-31T18:07:38.478Z,16.98
2018-08-31T18:10:07.579Z,16.86
2018-08-31T18:12:35.888Z,16.81
2018-08-31T18:15:04.515Z,16.86
2018-08-31T18:17:33.098Z,16.81
2018-08-31T18:22:54.043Z,16.65
2018-08-31T18:25:22.477Z,16.53
2018-08-31T18:27:50.795Z,16.46
2018-08-31T18:30:19.128Z,16.39
2018-08-31T18:32:47.358Z,16.30
2018-08-31T18:35:15.567Z,16.27
2018-08-31T18:37:43.906Z,16.13
2018-08-31T18:40:12.192Z,16.08
2018-08-31T18:42:40.500Z,16.02
2018-08-31T18:45:08.847Z,15.91
2018-08-31T18:53:54.389Z,15.67
2018-08-31T18:56:22.674Z,15.63
2018-08-31T18:58:51.009Z,15.53
2018-08-31T19:01:19.309Z,15.45
2018-08-31T19:03:47.649Z,15.38
2018-08-31T19:06:15.929Z,15.32
2018-08-31T19:08:44.288Z,15.31
2018-08-31T19:11:12.625Z,15.31
2018-08-31T19:13:40.893Z,15.25
2018-08-31T19:16:09.247Z,15.15
2018-08-31T19:18:38.073Z,15.06
2018-08-31T20:19:48.012Z,13.41
2018-08-31T20:22:16.534Z,13.39
2018-08-31T20:24:45.513Z,13.32
2018-08-31T20:27:13.941Z,13.33
2018-08-31T20:29:42.253Z,13.33
2018-08-31T20:32:10.743Z,13.30
2018-08-31T20:34:39.194Z,13.25
2018-08-31T20:37:07.655Z,13.23
2018-08-31T20:39:36.075Z,13.09
2018-08-31T20:42:05.277Z,13.13
2018-08-31T20:44:34.260Z,13.04
2018-08-31T20:47:03.616Z,12.96
2018-08-31T20:49:32.387Z,13.03
2018-08-31T20:52:00.653Z,13.02
2018-08-31T20:54:28.826Z,13.07
2018-08-31T20:56:57.064Z,12.98
2018-08-31T20:59:25.295Z,12.86
2018-08-31T21:01:53.520Z,12.85
2018-08-31T21:04:22.080Z,12.91
2018-08-31T21:06:50.677Z,12.94
2018-08-31T21:09:19.002Z,12.87
2018-08-31T21:11:48.581Z,12.82
2018-08-31T21:14:17.010Z,12.72
2018-08-31T21:17:10.953Z,12.74
2018-08-31T21:19:40.453Z,12.81
2018-08-31T21:22:08.754Z,12.77
2018-08-31T21:27:57.966Z,12.87
2018-08-31T21:34:30.258Z,12.86
2018-08-31T21:37:08.937Z,12.81
2018-08-31T21:39:37.277Z,12.82
2018-08-31T21:42:05.416Z,12.78
2018-08-31T21:44:33.578Z,12.82
2018-08-31T21:47:01.817Z,12.68
2018-08-31T21:49:30.226Z,12.74
2018-08-31T21:51:58.543Z,12.80
2018-08-31T21:54:26.906Z,12.71
2018-08-31T21:56:55.220Z,12.72
2018-08-31T21:59:23.289Z,12.77
2018-08-31T22:01:54.392Z,12.73
2018-08-31T22:04:23.692Z,12.74
2018-08-31T22:07:13.034Z,12.74
2018-08-31T22:12:24.018Z,12.79
2018-08-31T22:14:52.302Z,12.78
2018-08-31T22:17:20.510Z,12.86
2018-08-31T22:19:49.081Z,12.88
2018-08-31T22:22:17.401Z,12.90
2018-08-31T22:24:45.561Z,12.76
2018-08-31T22:27:13.612Z,12.84
2018-08-31T22:29:41.762Z,12.97
2018-08-31T22:32:10.043Z,12.95
2018-08-31T22:34:38.258Z,13.02
2018-08-31T22:37:06.558Z,13.00
2018-08-31T22:39:34.833Z,13.02
2018-08-31T22:42:03.113Z,13.16
2018-08-31T22:44:35.332Z,13.14
2018-08-31T22:47:04.513Z,13.15
2018-08-31T22:49:32.714Z,13.19
2018-08-31T22:52:01.186Z,13.21
2018-08-31T22:54:29.467Z,13.16
2018-08-31T22:56:57.787Z,13.21
2018-08-31T22:59:26.076Z,13.04
2018-08-31T23:01:54.408Z,13.14
2018-08-31T23:04:22.595Z,13.10
2018-08-31T23:06:50.780Z,13.07
2018-08-31T23:09:19.078Z,13.10
2018-08-31T23:11:47.308Z,13.13
2018-08-31T23:14:15.608Z,13.23
2018-08-31T23:16:43.912Z,13.18
2018-08-31T23:19:12.233Z,13.23
2018-08-31T23:21:40.284Z,13.23
2018-08-31T23:24:08.642Z,13.25
2018-08-31T23:26:36.662Z,13.29
2018-08-31T23:29:05.087Z,13.33
2018-08-31T23:31:33.144Z,13.22
2018-08-31T23:34:01.348Z,13.24
2018-08-31T23:36:29.554Z,13.23
2018-08-31T23:38:57.932Z,13.19
2018-08-31T23:41:26.233Z,13.18
2018-08-31T23:43:54.254Z,13.12
2018-08-31T23:46:22.509Z,13.09
2018-08-31T23:48:50.795Z,13.10
2018-08-31T23:51:19.035Z,13.04
2018-08-31T23:53:47.394Z,13.01
2018-08-31T23:56:15.640Z,13.02
2018-08-31T23:58:43.905Z,13.06
